createdAt,value
2023-03-31T00:01:21.779Z,15.57
2023-03-31T00:03:49.758Z,15.20
2023-03-31T00:06:19.367Z,15.30
2023-03-31T00:08:52.344Z,14.87
2023-03-31T00:11:20.784Z,15.10
2023-03-31T00:13:49.943Z,15.03
2023-03-31T00:16:17.754Z,14.07
2023-03-31T00:18:47.651Z,13.73
2023-03-31T00:21:25.582Z,14.20
2023-03-31T00:23:54.864Z,14.13
2023-03-31T00:26:23.179Z,14.37
2023-03-31T00:28:53.437Z,13.57
2023-03-31T00:31:22.055Z,13.10
2023-03-31T00:33:50.328Z,14.27
2023-03-31T00:36:21.476Z,13.30
2023-03-31T00:38:49.560Z,13.00
2023-03-31T00:41:17.528Z,13.00
2023-03-31T00:44:06.556Z,12.57
2023-03-31T00:46:36.335Z,12.13
2023-03-31T00:49:04.426Z,12.37
2023-03-31T00:51:33.832Z,12.63
2023-03-31T00:54:05.020Z,13.07
2023-03-31T00:56:35.509Z,12.50
2023-03-31T00:59:07.709Z,13.67
2023-03-31T01:01:36.531Z,13.13
2023-03-31T01:04:07.887Z,14.27
2023-03-31T01:06:37.770Z,13.27
2023-03-31T01:09:07.060Z,12.57
2023-03-31T01:11:35.410Z,13.10
2023-03-31T01:14:04.273Z,12.93
2023-03-31T01:16:34.090Z,12.40
2023-03-31T01:19:03.140Z,12.20
2023-03-31T01:21:54.812Z,13.40
2023-03-31T01:24:40.586Z,12.17
2023-03-31T01:27:33.477Z,11.20
2023-03-31T01:30:25.149Z,11.47
2023-03-31T01:33:16.369Z,12.00
2023-03-31T01:36:13.911Z,11.43
2023-03-31T01:38:53.413Z,12.03
2023-03-31T01:41:33.484Z,11.53
2023-03-31T01:44:08.339Z,10.27
2023-03-31T01:46:38.083Z,10.93
2023-03-31T01:49:13.576Z,11.00
2023-03-31T01:51:47.425Z,11.13
2023-03-31T01:54:20.986Z,10.17
2023-03-31T01:56:53.265Z,10.90
2023-03-31T01:59:26.950Z,10.23
2023-03-31T02:01:58.761Z,11.63
2023-03-31T02:04:30.579Z,11.27
2023-03-31T02:07:02.305Z,11.17
2023-03-31T02:09:35.411Z,10.40
2023-03-31T02:12:07.430Z,11.03
2023-03-31T02:14:37.202Z,9.90
2023-03-31T02:17:08.314Z,9.30
2023-03-31T02:19:40.220Z,7.77
2023-03-31T02:22:09.449Z,7.03
2023-03-31T02:24:38.478Z,6.63
2023-03-31T02:27:11.049Z,6.07
2023-03-31T02:29:38.927Z,5.70
2023-03-31T02:32:11.621Z,6.23
2023-03-31T02:34:39.580Z,6.57
2023-03-31T02:37:08.503Z,5.00
2023-03-31T02:39:37.705Z,5.87
2023-03-31T02:42:08.133Z,4.97
2023-03-31T02:44:36.296Z,4.60
2023-03-31T02:47:04.908Z,5.33
2023-03-31T02:49:33.251Z,5.07
2023-03-31T02:52:27.666Z,4.63
2023-03-31T02:55:20.907Z,6.07
2023-03-31T02:58:09.900Z,5.13
2023-03-31T03:00:43.653Z,5.40
2023-03-31T03:03:23.591Z,6.20
2023-03-31T03:05:59.556Z,4.70
2023-03-31T03:08:30.704Z,5.33
2023-03-31T03:11:03.667Z,6.17
2023-03-31T03:13:37.838Z,4.00
2023-03-31T03:16:08.617Z,7.13
2023-03-31T03:18:36.652Z,6.30
2023-03-31T03:21:04.629Z,5.10
2023-03-31T03:23:33.166Z,4.13
2023-03-31T03:26:01.213Z,4.33
2023-03-31T03:28:29.000Z,3.93
2023-03-31T03:30:58.201Z,3.67
2023-03-31T03:33:26.060Z,4.50
2023-03-31T03:35:53.948Z,3.80
2023-03-31T03:38:21.806Z,3.53
2023-03-31T03:40:54.277Z,4.80
2023-03-31T03:43:22.182Z,4.83
2023-03-31T03:45:50.332Z,3.23
2023-03-31T03:48:19.763Z,4.57
2023-03-31T03:50:47.650Z,4.87
2023-03-31T03:53:16.220Z,4.63
2023-03-31T03:55:45.073Z,3.30
2023-03-31T03:58:12.900Z,3.93
2023-03-31T04:00:40.608Z,3.63
2023-03-31T04:03:08.537Z,4.43
2023-03-31T04:05:37.740Z,3.27
2023-03-31T04:08:06.261Z,4.03
2023-03-31T04:10:33.999Z,4.07
2023-03-31T04:13:01.727Z,4.30
2023-03-31T04:15:29.589Z,2.70
2023-03-31T04:17:58.336Z,3.57
2023-03-31T04:20:27.958Z,3.00
2023-03-31T04:22:57.372Z,4.17
2023-03-31T04:25:25.142Z,3.37
2023-03-31T04:27:55.659Z,4.07
2023-03-31T04:30:23.978Z,6.40
2023-03-31T04:32:53.304Z,4.30
2023-03-31T04:35:21.849Z,3.10
2023-03-31T04:37:50.032Z,4.87
2023-03-31T04:40:19.580Z,3.87
2023-03-31T04:42:47.413Z,4.63
2023-03-31T04:45:15.354Z,4.17
2023-03-31T04:47:43.500Z,4.27
2023-03-31T04:53:05.374Z,4.07
2023-03-31T04:55:35.160Z,3.40
2023-03-31T04:58:03.064Z,3.20
2023-03-31T05:00:31.030Z,4.17
2023-03-31T05:03:00.714Z,3.70
2023-03-31T05:05:28.729Z,4.43
2023-03-31T05:07:57.820Z,5.40
2023-03-31T05:10:25.851Z,3.43
2023-03-31T05:12:55.175Z,3.23
2023-03-31T05:15:24.623Z,3.37
2023-03-31T05:17:52.844Z,3.20
2023-03-31T05:20:21.707Z,12.13
2023-03-31T05:22:49.485Z,5.87
2023-03-31T05:25:18.805Z,5.23
2023-03-31T05:27:47.506Z,5.07
2023-03-31T05:30:17.659Z,5.20
2023-03-31T05:32:48.061Z,3.97
2023-03-31T05:35:15.826Z,5.37
2023-03-31T05:37:43.597Z,3.63
2023-03-31T05:40:11.908Z,4.47
2023-03-31T05:42:39.841Z,3.53
2023-03-31T05:45:09.422Z,3.10
2023-03-31T05:47:40.085Z,4.53
2023-03-31T05:50:09.300Z,5.07
2023-03-31T05:52:37.443Z,3.57
2023-03-31T05:55:05.915Z,3.00
2023-03-31T05:57:33.780Z,4.20
2023-03-31T06:00:02.064Z,4.77
2023-03-31T06:02:29.858Z,3.47
2023-03-31T06:04:59.065Z,3.13
2023-03-31T06:07:26.977Z,4.30
2023-03-31T06:09:54.844Z,4.10
2023-03-31T06:12:22.754Z,3.57
2023-03-31T06:14:50.666Z,4.77
2023-03-31T06:17:19.023Z,3.63
2023-03-31T06:19:46.929Z,4.00
2023-03-31T06:22:16.141Z,3.93
2023-03-31T06:24:43.955Z,3.63
2023-03-31T06:27:11.879Z,4.00
2023-03-31T06:29:39.672Z,3.43
2023-03-31T06:32:07.490Z,3.77
2023-03-31T06:34:35.598Z,4.13
2023-03-31T06:37:03.361Z,4.17
2023-03-31T06:39:32.603Z,3.93
2023-03-31T06:42:00.445Z,4.97
2023-03-31T06:44:28.162Z,4.73
2023-03-31T06:46:56.199Z,4.27
2023-03-31T06:49:24.099Z,3.47
2023-03-31T06:51:52.564Z,3.90
2023-03-31T06:54:20.342Z,3.67
2023-03-31T06:56:49.624Z,3.77
2023-03-31T06:59:17.484Z,4.50
2023-03-31T07:01:46.099Z,4.17
2023-03-31T07:04:13.934Z,4.60
2023-03-31T07:06:41.654Z,5.07
2023-03-31T07:09:09.507Z,4.20
2023-03-31T07:11:37.367Z,5.77
2023-03-31T07:14:06.740Z,4.40
2023-03-31T07:16:34.614Z,4.73
2023-03-31T07:19:03.640Z,4.30
2023-03-31T07:21:31.702Z,4.60
2023-03-31T07:23:59.601Z,4.67
2023-03-31T07:26:27.789Z,4.47
2023-03-31T07:28:56.695Z,4.10
2023-03-31T07:31:26.248Z,4.10
2023-03-31T07:33:53.979Z,4.27
2023-03-31T07:36:22.123Z,5.07
2023-03-31T07:38:50.785Z,4.43
2023-03-31T07:41:21.102Z,6.73
2023-03-31T07:43:49.460Z,4.07
2023-03-31T07:46:19.649Z,5.23
2023-03-31T07:48:49.541Z,4.80
2023-03-31T07:51:18.857Z,4.63
2023-03-31T07:53:46.944Z,6.23
2023-03-31T07:56:14.703Z,5.30
2023-03-31T07:58:42.527Z,3.20
2023-03-31T08:01:12.265Z,4.83
2023-03-31T08:03:40.050Z,4.67
2023-03-31T08:06:09.727Z,4.03
2023-03-31T08:08:38.500Z,4.43
2023-03-31T08:11:06.553Z,4.23
2023-03-31T08:13:34.497Z,4.97
2023-03-31T08:16:02.423Z,5.93
2023-03-31T08:18:30.277Z,4.53
2023-03-31T08:20:58.142Z,3.67
2023-03-31T08:23:27.177Z,3.77
2023-03-31T08:25:54.892Z,4.80
2023-03-31T08:28:22.796Z,5.37
2023-03-31T08:30:50.850Z,5.07
2023-03-31T08:33:18.996Z,4.57
2023-03-31T08:35:46.895Z,4.27
2023-03-31T08:38:14.724Z,5.23
2023-03-31T08:40:44.209Z,4.73
2023-03-31T08:43:14.636Z,4.77
2023-03-31T08:45:44.595Z,5.50
2023-03-31T08:48:21.902Z,4.70
2023-03-31T08:50:53.920Z,5.20
2023-03-31T08:53:26.393Z,4.10
2023-03-31T08:55:56.713Z,4.50
2023-03-31T08:58:35.112Z,4.50
2023-03-31T09:01:06.908Z,5.20
2023-03-31T09:03:39.435Z,4.40
2023-03-31T09:06:08.665Z,5.93
2023-03-31T09:08:38.312Z,5.20
2023-03-31T09:11:24.429Z,5.00
2023-03-31T09:14:11.348Z,5.67
2023-03-31T09:16:41.962Z,4.13
2023-03-31T09:19:16.920Z,5.97
2023-03-31T09:21:46.006Z,6.23
2023-03-31T09:24:17.258Z,7.17
2023-03-31T09:26:47.938Z,5.37
2023-03-31T09:29:19.263Z,5.07
2023-03-31T09:31:48.433Z,6.33
2023-03-31T09:34:18.617Z,5.10
2023-03-31T09:36:46.354Z,6.43
2023-03-31T09:39:16.053Z,5.40
2023-03-31T09:41:49.135Z,5.03
2023-03-31T09:44:24.723Z,5.33
2023-03-31T09:46:53.170Z,6.50
2023-03-31T09:49:22.626Z,4.57
2023-03-31T09:51:59.234Z,5.73
2023-03-31T09:54:29.634Z,5.70
2023-03-31T09:56:58.827Z,5.27
2023-03-31T09:59:32.861Z,7.60
2023-03-31T10:02:03.314Z,7.80
2023-03-31T10:04:33.882Z,5.80
2023-03-31T10:07:02.706Z,6.07
2023-03-31T10:09:33.417Z,7.50
2023-03-31T10:12:06.209Z,7.07
2023-03-31T10:14:41.437Z,5.63
2023-03-31T10:17:15.909Z,5.67
2023-03-31T10:19:49.321Z,6.47
2023-03-31T10:22:28.882Z,6.07
2023-03-31T10:25:09.805Z,6.17
2023-03-31T10:27:41.493Z,7.93
2023-03-31T10:30:12.722Z,7.60
2023-03-31T10:32:43.210Z,6.13
2023-03-31T10:35:23.462Z,7.13
2023-03-31T10:37:51.964Z,7.83
2023-03-31T10:40:22.404Z,6.57
2023-03-31T10:43:02.769Z,6.27
2023-03-31T10:45:37.743Z,6.20
2023-03-31T10:48:07.762Z,5.70
2023-03-31T10:50:37.327Z,8.60
2023-03-31T10:53:07.369Z,6.77
2023-03-31T10:55:37.724Z,6.93
2023-03-31T10:58:14.353Z,6.97
2023-03-31T11:00:53.776Z,7.37
2023-03-31T11:03:42.779Z,8.10
2023-03-31T11:06:16.194Z,8.67
2023-03-31T11:08:53.250Z,7.67
2023-03-31T11:11:33.603Z,9.70
2023-03-31T11:14:08.810Z,7.87
2023-03-31T11:16:44.688Z,8.57
2023-03-31T11:19:21.450Z,8.40
2023-03-31T11:21:56.370Z,11.43
2023-03-31T11:24:36.446Z,9.87
2023-03-31T11:27:14.642Z,9.73
2023-03-31T11:29:46.409Z,10.67
2023-03-31T11:32:37.975Z,9.40
2023-03-31T11:35:16.554Z,10.17
2023-03-31T11:37:56.465Z,9.73
2023-03-31T11:40:33.603Z,9.83
2023-03-31T11:43:05.573Z,11.80
2023-03-31T11:45:38.876Z,10.70
2023-03-31T11:48:12.386Z,12.27
2023-03-31T11:50:41.355Z,11.60
2023-03-31T11:53:16.216Z,12.70
2023-03-31T11:55:44.819Z,11.53
2023-03-31T11:58:16.225Z,12.07
2023-03-31T12:00:48.456Z,13.70
2023-03-31T12:03:18.915Z,12.70
2023-03-31T12:05:48.905Z,13.30
2023-03-31T12:08:18.332Z,13.70
2023-03-31T12:10:49.255Z,15.37
2023-03-31T12:13:35.554Z,13.73
2023-03-31T12:16:08.101Z,12.73
2023-03-31T12:18:38.991Z,13.87
2023-03-31T12:21:07.441Z,15.40
2023-03-31T12:23:38.981Z,16.67
2023-03-31T12:26:11.477Z,17.13
2023-03-31T12:28:41.723Z,19.97
2023-03-31T12:31:14.217Z,19.80
2023-03-31T12:33:44.232Z,19.03
2023-03-31T12:36:21.853Z,19.37
2023-03-31T12:38:59.040Z,21.57
2023-03-31T12:41:32.100Z,22.43
2023-03-31T12:44:15.491Z,22.23
2023-03-31T12:47:03.642Z,23.13
2023-03-31T12:49:41.016Z,22.63
2023-03-31T12:52:14.308Z,20.70
2023-03-31T12:55:05.426Z,18.73
2023-03-31T12:57:33.544Z,18.13
2023-03-31T13:00:22.019Z,18.97
2023-03-31T13:02:51.714Z,17.73
2023-03-31T13:05:53.051Z,16.90
2023-03-31T13:08:51.442Z,19.50
2023-03-31T13:11:19.443Z,17.10
2023-03-31T13:16:44.149Z,16.93
2023-03-31T13:19:28.592Z,17.60
2023-03-31T13:21:57.259Z,15.37
2023-03-31T13:24:25.870Z,18.33
2023-03-31T13:26:56.650Z,13.87
2023-03-31T13:29:25.985Z,14.30
2023-03-31T13:32:30.412Z,14.93
2023-03-31T13:35:03.590Z,13.07
2023-03-31T13:37:46.666Z,13.70
2023-03-31T13:40:52.956Z,12.47
2023-03-31T13:43:41.182Z,10.47
2023-03-31T13:46:23.486Z,8.77
2023-03-31T13:48:56.796Z,11.73
2023-03-31T13:51:32.942Z,11.00
2023-03-31T13:54:48.341Z,11.33
2023-03-31T13:57:48.034Z,9.13
2023-03-31T14:00:27.905Z,8.87
2023-03-31T14:03:21.769Z,9.20
2023-03-31T14:05:55.273Z,7.90
2023-03-31T14:08:34.798Z,8.40
2023-03-31T14:11:18.469Z,8.50
2023-03-31T14:13:46.258Z,8.53
2023-03-31T14:16:17.302Z,10.07
2023-03-31T14:18:49.445Z,9.50
2023-03-31T14:21:22.798Z,6.03
2023-03-31T14:23:58.364Z,9.07
2023-03-31T14:26:40.219Z,10.00
2023-03-31T14:29:13.752Z,7.77
2023-03-31T14:31:48.184Z,9.37
2023-03-31T14:34:33.087Z,7.43
2023-03-31T14:37:02.268Z,7.77
2023-03-31T14:39:33.317Z,6.37
2023-03-31T14:42:05.786Z,6.17
2023-03-31T14:44:36.058Z,7.73
2023-03-31T14:47:04.033Z,6.30
2023-03-31T14:49:36.832Z,7.23
2023-03-31T14:52:15.308Z,5.53
2023-03-31T14:54:47.465Z,6.70
2023-03-31T14:57:19.284Z,6.27
2023-03-31T14:59:48.517Z,5.67
2023-03-31T15:02:20.407Z,6.43
2023-03-31T15:04:50.530Z,7.20
2023-03-31T15:07:19.282Z,4.07
2023-03-31T15:09:51.739Z,5.93
2023-03-31T15:12:22.077Z,7.07
2023-03-31T15:14:54.145Z,4.87
2023-03-31T15:17:24.152Z,5.47
2023-03-31T15:19:57.694Z,5.13
2023-03-31T15:22:27.630Z,7.00
2023-03-31T15:24:56.994Z,6.53
2023-03-31T15:27:37.140Z,5.40
2023-03-31T15:30:08.259Z,7.07
2023-03-31T15:32:37.870Z,4.43
2023-03-31T15:37:40.379Z,6.23
2023-03-31T15:40:19.911Z,5.97
2023-03-31T15:43:01.608Z,6.77
2023-03-31T15:45:40.104Z,6.37
2023-03-31T15:48:17.965Z,4.97
2023-03-31T15:50:45.830Z,6.27
2023-03-31T15:53:27.457Z,4.93
2023-03-31T15:55:59.887Z,5.40
2023-03-31T15:58:49.766Z,5.77
2023-03-31T16:01:17.891Z,6.40
2023-03-31T16:03:46.226Z,5.90
2023-03-31T16:06:20.878Z,5.17
2023-03-31T16:08:50.190Z,7.23
2023-03-31T16:11:20.906Z,5.43
2023-03-31T16:13:51.459Z,8.37
2023-03-31T16:16:21.134Z,7.90
2023-03-31T16:18:51.151Z,6.67
2023-03-31T16:21:22.019Z,7.03
2023-03-31T16:23:52.468Z,8.13
2023-03-31T16:26:23.583Z,7.80
2023-03-31T16:28:54.048Z,8.20
2023-03-31T16:31:35.263Z,7.30
2023-03-31T16:34:04.380Z,6.83
2023-03-31T16:36:32.367Z,6.13
2023-03-31T16:39:03.180Z,7.33
2023-03-31T16:41:33.232Z,8.30
2023-03-31T16:44:01.518Z,6.37
2023-03-31T16:46:29.625Z,9.73
2023-03-31T16:48:57.495Z,6.80
2023-03-31T16:51:26.239Z,6.83
2023-03-31T16:53:54.457Z,7.20
2023-03-31T16:56:23.345Z,7.53
2023-03-31T16:58:53.726Z,9.33
2023-03-31T17:01:21.553Z,5.77
2023-03-31T17:03:49.640Z,7.83
2023-03-31T17:06:17.538Z,8.17
2023-03-31T17:08:45.839Z,9.23
2023-03-31T17:11:14.669Z,6.27
2023-03-31T17:13:43.506Z,7.73
2023-03-31T17:16:22.229Z,6.43
2023-03-31T17:18:54.751Z,9.93
2023-03-31T17:21:23.625Z,7.97
2023-03-31T17:23:51.657Z,7.63
2023-03-31T17:26:19.711Z,10.57
2023-03-31T17:28:47.559Z,9.07
2023-03-31T17:31:18.755Z,7.40
2023-03-31T17:33:47.549Z,6.53
2023-03-31T17:36:16.007Z,8.40
2023-03-31T17:38:44.995Z,7.13
2023-03-31T17:41:14.135Z,6.30
2023-03-31T17:43:45.822Z,7.13
2023-03-31T17:46:13.969Z,6.17
2023-03-31T17:48:43.708Z,7.20
2023-03-31T17:51:14.795Z,7.50
2023-03-31T17:53:42.929Z,7.20
2023-03-31T17:56:10.674Z,8.40
2023-03-31T17:58:39.492Z,6.57
2023-03-31T18:01:08.451Z,5.67
2023-03-31T18:03:37.300Z,6.77
2023-03-31T18:06:07.978Z,7.87
2023-03-31T18:08:36.256Z,8.00
2023-03-31T18:11:05.152Z,8.50
2023-03-31T18:13:33.322Z,10.63
2023-03-31T18:16:01.204Z,6.27
2023-03-31T18:18:29.086Z,7.50
2023-03-31T18:20:57.059Z,7.40
2023-03-31T18:23:26.208Z,6.63
2023-03-31T18:25:53.977Z,6.83
2023-03-31T18:28:21.694Z,8.57
2023-03-31T18:30:49.481Z,7.23
2023-03-31T18:33:17.681Z,9.17
2023-03-31T18:35:46.794Z,9.03
2023-03-31T18:38:14.771Z,6.87
2023-03-31T18:40:50.728Z,8.63
2023-03-31T18:43:19.345Z,7.23
2023-03-31T18:45:49.364Z,8.67
2023-03-31T18:48:18.621Z,11.47
2023-03-31T18:50:46.795Z,10.17
2023-03-31T18:53:15.530Z,8.60
2023-03-31T18:55:43.746Z,8.20
2023-03-31T18:58:13.304Z,11.73
2023-03-31T19:00:41.978Z,8.67
2023-03-31T19:03:09.961Z,11.07
2023-03-31T19:05:38.796Z,8.00
2023-03-31T19:08:07.011Z,9.83
2023-03-31T19:10:34.844Z,7.33
2023-03-31T19:13:02.583Z,7.23
2023-03-31T19:15:33.218Z,7.27
2023-03-31T19:18:01.431Z,8.13
2023-03-31T19:20:29.339Z,8.57
2023-03-31T19:22:57.189Z,7.27
2023-03-31T19:25:25.252Z,8.57
2023-03-31T19:27:53.077Z,6.87
2023-03-31T19:30:22.079Z,7.23
2023-03-31T19:32:51.348Z,10.07
2023-03-31T19:35:20.012Z,7.27
2023-03-31T19:37:48.770Z,10.00
2023-03-31T19:40:16.832Z,8.60
2023-03-31T19:42:44.675Z,7.87
2023-03-31T19:45:12.635Z,5.00
2023-03-31T19:47:40.641Z,5.87
2023-03-31T19:50:11.302Z,7.47
2023-03-31T19:52:39.105Z,8.47
2023-03-31T19:55:07.569Z,7.87
2023-03-31T19:57:35.318Z,8.03
2023-03-31T20:00:04.204Z,7.10
2023-03-31T20:02:33.392Z,8.17
2023-03-31T20:05:01.782Z,8.97
2023-03-31T20:07:30.975Z,8.03
2023-03-31T20:09:58.796Z,7.73
2023-03-31T20:12:26.983Z,7.13
2023-03-31T20:14:54.732Z,9.53
2023-03-31T20:17:22.595Z,6.27
2023-03-31T20:19:50.326Z,10.33
2023-03-31T20:22:18.214Z,7.73
2023-03-31T20:24:47.468Z,8.17
2023-03-31T20:27:15.908Z,10.10
2023-03-31T20:29:43.759Z,6.83
2023-03-31T20:32:11.849Z,8.60
2023-03-31T20:34:39.721Z,8.17
2023-03-31T20:37:07.736Z,9.53
2023-03-31T20:39:35.947Z,9.43
2023-03-31T20:42:06.269Z,11.07
2023-03-31T20:44:34.091Z,10.67
2023-03-31T20:47:01.999Z,8.57
2023-03-31T20:49:32.213Z,9.33
2023-03-31T20:52:00.360Z,7.40
2023-03-31T20:54:28.341Z,9.27
2023-03-31T20:56:56.430Z,9.03
2023-03-31T20:59:25.556Z,9.00
2023-03-31T21:01:53.431Z,8.60
2023-03-31T21:04:21.930Z,7.47
2023-03-31T21:06:49.846Z,9.93
2023-03-31T21:09:18.332Z,10.90
2023-03-31T21:11:46.377Z,10.77
2023-03-31T21:14:15.219Z,11.63
2023-03-31T21:16:44.677Z,11.00
2023-03-31T21:19:12.891Z,11.07
2023-03-31T21:21:41.876Z,9.50
2023-03-31T21:24:11.077Z,9.40
2023-03-31T21:26:38.935Z,8.60
2023-03-31T21:29:06.781Z,7.83
2023-03-31T21:31:34.541Z,8.50
2023-03-31T21:34:04.541Z,8.03
2023-03-31T21:36:32.361Z,6.43
2023-03-31T21:39:00.162Z,6.53
2023-03-31T21:41:30.130Z,6.40
2023-03-31T21:44:00.603Z,6.60
2023-03-31T21:46:31.195Z,6.67
2023-03-31T21:48:59.314Z,6.47
2023-03-31T21:51:28.690Z,5.33
2023-03-31T21:53:56.893Z,5.17
2023-03-31T21:56:25.428Z,4.93
2023-03-31T21:58:53.315Z,5.80
2023-03-31T22:01:22.464Z,4.93
2023-03-31T22:03:51.832Z,5.63
2023-03-31T22:06:19.910Z,4.60
2023-03-31T22:08:49.216Z,4.10
2023-03-31T22:11:17.018Z,5.33
2023-03-31T22:13:44.806Z,4.00
2023-03-31T22:16:16.993Z,3.77
2023-03-31T22:18:45.471Z,3.10
2023-03-31T22:21:18.110Z,3.23
2023-03-31T22:23:45.950Z,3.07
2023-03-31T22:26:15.565Z,2.90
2023-03-31T22:28:43.511Z,3.00
2023-03-31T22:31:11.395Z,3.27
2023-03-31T22:33:39.272Z,2.60
2023-03-31T22:36:07.815Z,3.13
2023-03-31T22:38:35.706Z,2.50
2023-03-31T22:41:03.484Z,2.60
2023-03-31T22:43:33.232Z,2.03
2023-03-31T22:46:03.825Z,2.20
2023-03-31T22:48:31.655Z,2.10
2023-03-31T22:53:34.810Z,1.87
2023-03-31T22:56:07.973Z,1.60
2023-03-31T22:58:37.674Z,2.93
2023-03-31T23:01:09.981Z,2.10
2023-03-31T23:03:37.893Z,1.40
2023-03-31T23:06:06.745Z,1.60
2023-03-31T23:08:35.703Z,1.10
2023-03-31T23:11:05.374Z,1.40
2023-03-31T23:13:33.790Z,2.13
2023-03-31T23:16:07.492Z,1.43
2023-03-31T23:18:35.836Z,1.03
2023-03-31T23:21:06.818Z,1.23
2023-03-31T23:23:34.759Z,1.20
2023-03-31T23:26:02.918Z,1.40
2023-03-31T23:28:31.624Z,1.20
2023-03-31T23:30:59.740Z,0.83
2023-03-31T23:33:30.802Z,0.90
2023-03-31T23:36:02.573Z,1.13
2023-03-31T23:38:30.504Z,1.40
2023-03-31T23:40:58.790Z,1.10
2023-03-31T23:43:27.511Z,0.87
2023-03-31T23:45:56.409Z,1.13
2023-03-31T23:48:24.322Z,1.27
2023-03-31T23:50:53.743Z,1.20
2023-03-31T23:53:21.630Z,1.10
2023-03-31T23:56:01.376Z,1.87
2023-03-31T23:58:29.306Z,2.63
